Time;durP1;ratioP1;P1;durP2;ratioP2;P2;SDS_P1;SDS_P2;PMS_P1;PMS_P2;Temp;Humidity;BMP_temperature;BMP_pressure;BME280_temperature;BME280_humidity;BME280_pressure;Samples;Min_cycle;Max_cycle;Signal;HPM_P1;HPM_P2
2023/07/10 00:00:10;;;;;;;10.67;6.47;;;21.20;99.90;;;;;;486789;244;28722;-79
2023/07/10 00:02:13;;;;;;;8.87;5.77;;;21.20;99.90;;;;;;486756;244;28848;-80
2023/07/10 00:04:13;;;;;;;6.57;5.90;;;21.20;99.90;;;;;;486709;244;29170;-79
2023/07/10 00:06:14;;;;;;;7.33;6.23;;;21.20;99.90;;;;;;486767;244;29661;-80
2023/07/10 00:08:15;;;;;;;9.20;6.20;;;21.20;99.90;;;;;;486796;244;29210;-79
2023/07/10 00:10:16;;;;;;;8.60;6.43;;;21.20;99.90;;;;;;486771;244;29412;-80
2023/07/10 00:12:18;;;;;;;6.47;5.53;;;21.20;99.90;;;;;;486744;244;28696;-79
2023/07/10 00:14:19;;;;;;;8.23;6.20;;;21.20;99.90;;;;;;486726;244;28967;-80
2023/07/10 00:16:20;;;;;;;7.37;5.93;;;21.20;99.90;;;;;;486747;244;28794;-79
2023/07/10 00:18:21;;;;;;;7.93;6.00;;;21.00;99.90;;;;;;486769;244;28836;-79
2023/07/10 00:20:23;;;;;;;8.03;6.57;;;21.00;99.90;;;;;;486770;244;28715;-79
2023/07/10 00:22:24;;;;;;;7.57;6.40;;;21.00;99.90;;;;;;486790;244;28926;-80
2023/07/10 00:24:25;;;;;;;6.70;6.10;;;21.00;99.90;;;;;;486784;244;28774;-80
2023/07/10 00:26:26;;;;;;;7.77;6.40;;;20.90;99.90;;;;;;486769;244;28835;-80
2023/07/10 00:28:28;;;;;;;9.10;6.27;;;20.90;99.90;;;;;;486810;244;28731;-80
2023/07/10 00:30:31;;;;;;;7.70;5.90;;;20.90;99.90;;;;;;486762;244;29477;-80
2023/07/10 00:32:30;;;;;;;8.73;6.00;;;20.90;99.90;;;;;;486676;244;29206;-80
2023/07/10 00:34:31;;;;;;;9.60;6.30;;;20.90;99.90;;;;;;486730;244;29395;-80
2023/07/10 00:36:33;;;;;;;9.87;6.93;;;20.90;99.90;;;;;;486797;244;28661;-80
2023/07/10 00:38:34;;;;;;;7.47;6.43;;;20.90;99.90;;;;;;486817;244;28948;-80
2023/07/10 00:40:36;;;;;;;8.20;6.03;;;20.80;99.90;;;;;;486718;244;28696;-80
2023/07/10 00:42:36;;;;;;;9.60;6.30;;;20.70;99.90;;;;;;486801;244;28915;-80
2023/07/10 00:44:38;;;;;;;7.80;5.97;;;20.60;99.90;;;;;;486801;244;28695;-80
2023/07/10 00:46:39;;;;;;;8.70;5.90;;;20.60;99.90;;;;;;486779;244;28863;-80
2023/07/10 00:48:40;;;;;;;9.77;6.90;;;20.60;99.90;;;;;;486820;244;28755;-80
2023/07/10 00:50:41;;;;;;;7.80;6.20;;;20.60;99.90;;;;;;486673;244;28970;-79
2023/07/10 00:52:43;;;;;;;7.23;6.33;;;20.50;99.90;;;;;;486800;244;28698;-80
2023/07/10 00:54:44;;;;;;;6.47;5.87;;;20.50;99.90;;;;;;486764;244;29353;-80
2023/07/10 00:56:45;;;;;;;10.97;5.90;;;20.60;99.90;;;;;;486782;244;29119;-80
2023/07/10 00:58:46;;;;;;;7.13;6.40;;;20.60;99.90;;;;;;486794;244;29315;-79
2023/07/10 01:00:48;;;;;;;6.70;5.93;;;20.60;99.90;;;;;;486827;244;28848;-79
2023/07/10 01:02:49;;;;;;;8.37;6.80;;;20.60;99.90;;;;;;486785;244;28942;-80
2023/07/10 01:04:52;;;;;;;8.50;6.83;;;20.60;99.90;;;;;;486792;244;28712;-80
2023/07/10 01:06:53;;;;;;;9.07;6.97;;;20.60;99.90;;;;;;486648;244;28910;-80
2023/07/10 01:08:53;;;;;;;7.93;6.20;;;20.60;99.90;;;;;;486685;244;28784;-80
2023/07/10 01:10:54;;;;;;;7.20;6.00;;;20.50;99.90;;;;;;486817;244;28895;-79
2023/07/10 01:12:55;;;;;;;7.93;6.30;;;20.50;99.90;;;;;;486835;244;28706;-79
2023/07/10 01:14:56;;;;;;;8.53;6.30;;;20.50;99.90;;;;;;486793;244;28892;-79
2023/07/10 01:16:58;;;;;;;9.30;6.60;;;20.50;99.90;;;;;;486817;244;28697;-80
2023/07/10 01:18:59;;;;;;;9.40;6.77;;;20.50;99.90;;;;;;486768;244;29329;-80
2023/07/10 01:21:00;;;;;;;7.80;6.33;;;20.50;99.90;;;;;;486832;244;29203;-80
2023/07/10 01:23:01;;;;;;;7.70;6.30;;;20.50;99.90;;;;;;486773;244;29351;-79
2023/07/10 01:25:03;;;;;;;7.73;5.80;;;20.50;99.90;;;;;;486813;244;28698;-79
2023/07/10 01:27:04;;;;;;;7.80;6.00;;;20.40;99.90;;;;;;486770;244;28974;-80
2023/07/10 01:29:05;;;;;;;5.90;5.30;;;20.40;99.90;;;;;;486812;244;28717;-79
2023/07/10 01:31:06;;;;;;;7.03;6.20;;;20.40;99.90;;;;;;486824;244;28887;-79
2023/07/10 01:33:08;;;;;;;8.17;5.60;;;20.40;99.90;;;;;;486820;244;28797;-79
2023/07/10 01:35:09;;;;;;;7.77;6.03;;;20.40;99.90;;;;;;486687;244;28908;-78
2023/07/10 01:37:10;;;;;;;6.87;6.00;;;20.30;99.90;;;;;;486782;244;28671;-78
2023/07/10 01:39:11;;;;;;;8.57;6.40;;;20.20;99.90;;;;;;486795;244;28958;-80
2023/07/10 01:41:13;;;;;;;7.27;6.23;;;20.20;99.90;;;;;;486840;244;28715;-79
2023/07/10 01:43:14;;;;;;;7.17;6.00;;;20.20;99.90;;;;;;486791;244;29300;-79
2023/07/10 01:45:15;;;;;;;8.77;6.27;;;20.20;99.90;;;;;;486808;244;29179;-80
2023/07/10 01:47:16;;;;;;;8.37;6.67;;;20.20;99.90;;;;;;486790;244;29403;-79
2023/07/10 01:49:18;;;;;;;7.77;5.93;;;20.20;99.90;;;;;;486823;244;28731;-79
2023/07/10 01:51:19;;;;;;;6.97;6.27;;;20.30;99.90;;;;;;486830;244;28872;-80
2023/07/10 01:53:20;;;;;;;6.40;5.43;;;20.20;99.90;;;;;;486817;244;28674;-79
2023/07/10 01:55:21;;;;;;;13.90;7.10;;;20.30;99.90;;;;;;486826;244;28986;-79
2023/07/10 01:57:23;;;;;;;7.80;6.87;;;20.10;99.90;;;;;;486824;244;28746;-80
2023/07/10 01:59:24;;;;;;;7.33;5.87;;;20.10;99.90;;;;;;486816;244;28989;-79
2023/07/10 02:01:25;;;;;;;8.33;6.73;;;20.10;99.90;;;;;;486859;244;29080;-79
2023/07/10 02:03:26;;;;;;;6.80;6.10;;;20.20;99.90;;;;;;486825;244;28919;-80
2023/07/10 02:05:28;;;;;;;7.70;6.73;;;20.20;99.90;;;;;;486817;244;28814;-80
2023/07/10 02:07:29;;;;;;;8.73;6.27;;;20.20;99.90;;;;;;486770;244;29277;-79
2023/07/10 02:09:30;;;;;;;12.50;6.57;;;20.30;99.90;;;;;;486755;244;29356;-79
2023/07/10 02:11:34;;;;;;;10.30;7.23;;;20.30;99.90;;;;;;486812;244;29285;-79
2023/07/10 02:13:33;;;;;;;6.83;5.90;;;20.30;99.90;;;;;;486638;244;28671;-79
2023/07/10 02:15:34;;;;;;;9.97;7.00;;;20.40;99.90;;;;;;486773;244;28895;-80
2023/07/10 02:17:35;;;;;;;17.17;8.70;;;20.30;99.90;;;;;;486808;240;28659;-80
2023/07/10 02:19:36;;;;;;;19.20;8.63;;;20.10;99.90;;;;;;486803;244;28968;-80
2023/07/10 02:21:38;;;;;;;12.20;8.00;;;19.60;99.90;;;;;;486835;244;28746;-79
2023/07/10 02:23:39;;;;;;;12.20;7.27;;;19.70;99.90;;;;;;486806;244;28853;-79
2023/07/10 02:25:40;;;;;;;9.97;6.60;;;19.80;99.90;;;;;;486810;244;28706;-79
2023/07/10 02:27:41;;;;;;;10.20;7.03;;;19.90;99.90;;;;;;486818;244;29284;-79
2023/07/10 02:29:43;;;;;;;10.83;7.60;;;19.80;99.90;;;;;;486790;244;29241;-79
2023/07/10 02:31:44;;;;;;;8.63;7.40;;;19.70;99.90;;;;;;486650;244;29455;-79
2023/07/10 02:33:45;;;;;;;12.17;8.20;;;19.70;99.90;;;;;;486828;244;28668;-78
2023/07/10 02:35:46;;;;;;;8.17;6.90;;;19.60;99.90;;;;;;486804;244;28995;-79
2023/07/10 02:37:48;;;;;;;9.03;6.73;;;19.40;99.90;;;;;;486817;244;28712;-79
2023/07/10 02:39:49;;;;;;;8.80;6.70;;;19.60;99.90;;;;;;486717;244;28907;-79
2023/07/10 02:41:50;;;;;;;9.53;6.90;;;19.60;99.90;;;;;;486765;244;28841;-79
2023/07/10 02:43:51;;;;;;;12.70;7.27;;;19.70;99.90;;;;;;486840;244;28848;-78
2023/07/10 02:45:53;;;;;;;7.67;5.93;;;19.70;99.90;;;;;;486817;244;28778;-79
2023/07/10 02:47:54;;;;;;;7.93;6.67;;;19.70;99.90;;;;;;486806;244;28829;-79
2023/07/10 02:49:55;;;;;;;8.80;6.90;;;19.70;99.90;;;;;;486807;244;29126;-79
2023/07/10 02:51:56;;;;;;;9.93;6.77;;;19.60;99.90;;;;;;486793;244;30206;-79
2023/07/10 02:53:58;;;;;;;12.60;7.20;;;19.60;99.90;;;;;;486831;244;29205;-79
2023/07/10 02:55:59;;;;;;;9.03;7.13;;;19.60;99.90;;;;;;486784;244;28908;-79
2023/07/10 02:58:00;;;;;;;9.70;6.50;;;19.50;99.90;;;;;;486799;244;28657;-79
2023/07/10 03:00:02;;;;;;;9.73;6.30;;;19.50;99.90;;;;;;486621;244;28898;-79
2023/07/10 03:02:03;;;;;;;9.80;6.90;;;19.50;99.90;;;;;;486598;244;28768;-78
2023/07/10 03:04:04;;;;;;;8.00;6.93;;;19.50;99.90;;;;;;486733;244;28854;-79
2023/07/10 03:06:05;;;;;;;8.70;6.43;;;19.50;99.90;;;;;;486830;244;28868;-79
2023/07/10 03:08:07;;;;;;;9.77;6.93;;;19.50;99.90;;;;;;486825;244;28854;-78
2023/07/10 03:10:08;;;;;;;10.90;7.00;;;19.50;99.90;;;;;;486837;244;28718;-79
2023/07/10 03:12:09;;;;;;;9.00;7.07;;;19.50;99.90;;;;;;486584;244;29343;-79
2023/07/10 03:14:10;;;;;;;9.83;7.30;;;19.50;99.90;;;;;;486590;244;29245;-78
2023/07/10 03:16:12;;;;;;;10.43;7.10;;;19.60;99.90;;;;;;486823;244;29354;-79
2023/07/10 03:18:13;;;;;;;14.30;9.20;;;19.50;99.90;;;;;;486843;244;29226;-79
2023/07/10 03:20:14;;;;;;;12.07;9.30;;;19.30;99.90;;;;;;486809;244;28872;-79
2023/07/10 03:22:15;;;;;;;14.50;9.37;;;19.10;99.90;;;;;;486771;244;28721;-79
2023/07/10 03:24:17;;;;;;;8.37;7.57;;;19.00;99.90;;;;;;486779;244;28948;-79
2023/07/10 03:26:18;;;;;;;10.90;7.27;;;19.00;99.90;;;;;;486831;244;28744;-79
2023/07/10 03:28:19;;;;;;;7.50;6.40;;;19.10;99.90;;;;;;486823;244;28861;-79
2023/07/10 03:30:20;;;;;;;11.30;6.67;;;19.20;99.90;;;;;;486810;244;28778;-78
2023/07/10 03:32:22;;;;;;;12.47;7.10;;;19.30;99.90;;;;;;486775;244;28845;-79
2023/07/10 03:34:23;;;;;;;9.90;7.47;;;19.30;99.90;;;;;;486768;244;29165;-79
2023/07/10 03:36:24;;;;;;;8.40;7.33;;;19.40;99.90;;;;;;486801;244;29463;-79
2023/07/10 03:38:25;;;;;;;10.53;7.97;;;19.30;99.90;;;;;;486824;244;29128;-79
2023/07/10 03:40:27;;;;;;;8.00;7.07;;;19.30;99.90;;;;;;486793;244;28891;-79
2023/07/10 03:42:28;;;;;;;7.97;6.77;;;19.30;99.90;;;;;;486767;244;28708;-79
2023/07/10 03:44:29;;;;;;;8.50;7.27;;;19.30;99.90;;;;;;486770;244;28877;-79
2023/07/10 03:46:30;;;;;;;6.93;6.20;;;19.30;99.90;;;;;;486833;244;29063;-79
2023/07/10 03:48:32;;;;;;;10.77;7.10;;;19.20;99.90;;;;;;486822;244;28837;-78
2023/07/10 03:50:33;;;;;;;7.33;6.50;;;19.20;99.90;;;;;;486834;244;28689;-79
2023/07/10 03:52:34;;;;;;;9.83;6.93;;;19.20;99.90;;;;;;486822;244;28831;-80
2023/07/10 03:54:35;;;;;;;10.23;7.03;;;19.20;99.90;;;;;;486804;244;28727;-79
2023/07/10 03:56:37;;;;;;;7.63;6.83;;;19.20;99.90;;;;;;486054;236;29360;-79
2023/07/10 03:58:38;;;;;;;10.50;7.43;;;19.10;99.90;;;;;;476674;249;29330;-79
2023/07/10 04:00:39;;;;;;;10.50;7.13;;;19.00;99.90;;;;;;476670;249;29389;-79
2023/07/10 04:02:40;;;;;;;8.57;7.37;;;19.00;99.90;;;;;;476663;249;28876;-79
2023/07/10 04:04:42;;;;;;;8.17;7.20;;;19.00;99.90;;;;;;476651;249;28817;-79
2023/07/10 04:06:43;;;;;;;8.90;7.50;;;19.10;99.90;;;;;;476691;249;28863;-79
2023/07/10 04:08:44;;;;;;;10.70;6.50;;;19.20;99.90;;;;;;476646;249;28812;-79
2023/07/10 04:10:45;;;;;;;9.03;6.90;;;19.20;99.90;;;;;;476669;249;28978;-79
2023/07/10 04:12:47;;;;;;;7.57;6.40;;;19.20;99.90;;;;;;476651;249;28790;-79
2023/07/10 04:14:48;;;;;;;8.33;6.73;;;19.20;99.90;;;;;;476660;249;28808;-79
2023/07/10 04:16:49;;;;;;;10.40;7.13;;;19.30;99.90;;;;;;480118;232;29117;-81
2023/07/10 04:18:50;;;;;;;10.53;7.87;;;19.30;99.90;;;;;;477948;249;29342;-81
2023/07/10 04:20:52;;;;;;;7.03;6.33;;;19.30;99.90;;;;;;486788;244;29377;-80
2023/07/10 04:22:53;;;;;;;8.83;6.13;;;19.30;99.90;;;;;;485920;245;29327;-79
2023/07/10 04:24:54;;;;;;;8.50;6.90;;;19.50;99.90;;;;;;485019;245;28794;-79
2023/07/10 04:26:55;;;;;;;7.37;6.63;;;19.50;99.90;;;;;;486822;244;28955;-80
2023/07/10 04:28:57;;;;;;;7.13;6.43;;;19.60;99.90;;;;;;485941;245;28751;-79
2023/07/10 04:30:58;;;;;;;8.43;6.80;;;19.60;99.90;;;;;;485067;245;29706;-79
2023/07/10 04:32:59;;;;;;;7.10;6.40;;;19.60;99.90;;;;;;486831;244;28853;-79
2023/07/10 04:35:00;;;;;;;10.70;6.93;;;19.60;99.90;;;;;;485975;245;28798;-79
2023/07/10 04:37:02;;;;;;;8.13;6.60;;;19.60;99.90;;;;;;487394;244;28693;-79
2023/07/10 04:39:03;;;;;;;7.37;6.57;;;19.60;99.90;;;;;;493803;240;28725;-80
2023/07/10 04:41:04;;;;;;;8.80;7.33;;;19.60;99.90;;;;;;486824;244;29330;-80
2023/07/10 04:43:05;;;;;;;10.10;6.37;;;19.70;99.90;;;;;;485984;245;29240;-80
2023/07/10 04:45:07;;;;;;;7.57;6.83;;;19.80;99.90;;;;;;485061;245;29237;-80
2023/07/10 04:47:08;;;;;;;7.80;6.87;;;19.90;99.90;;;;;;486834;244;28900;-80
2023/07/10 04:49:09;;;;;;;8.20;6.80;;;19.90;99.90;;;;;;485967;245;28842;-80
2023/07/10 04:51:10;;;;;;;15.50;7.47;;;20.00;99.90;;;;;;485057;245;28761;-80
2023/07/10 04:53:12;;;;;;;9.00;6.80;;;20.00;99.90;;;;;;486798;244;28979;-79
2023/07/10 04:55:13;;;;;;;10.30;7.10;;;20.10;99.90;;;;;;485962;245;28775;-79
2023/07/10 04:57:14;;;;;;;7.30;6.43;;;20.10;99.90;;;;;;485053;245;29157;-79
2023/07/10 04:59:15;;;;;;;10.43;7.53;;;20.10;99.90;;;;;;486824;244;28852;-80
2023/07/10 05:01:17;;;;;;;20.53;8.20;;;20.10;99.90;;;;;;485955;245;28864;-79
2023/07/10 05:03:18;;;;;;;10.47;7.57;;;20.10;99.90;;;;;;485042;239;29158;-80
2023/07/10 05:05:19;;;;;;;8.07;7.30;;;20.10;99.90;;;;;;486791;244;29468;-80
2023/07/10 05:07:20;;;;;;;13.50;6.77;;;20.20;99.90;;;;;;485968;245;29433;-80
2023/07/10 05:09:22;;;;;;;8.93;7.20;;;20.20;99.90;;;;;;485066;245;28764;-79
2023/07/10 05:11:23;;;;;;;9.83;6.73;;;20.20;99.90;;;;;;486794;244;28870;-78
2023/07/10 05:13:24;;;;;;;10.20;7.00;;;20.20;99.90;;;;;;485959;245;28829;-80
2023/07/10 05:15:25;;;;;;;9.43;6.87;;;20.30;99.90;;;;;;485040;245;28777;-80
2023/07/10 05:17:27;;;;;;;11.83;7.20;;;20.40;99.90;;;;;;486756;244;28971;-80
2023/07/10 05:19:32;;;;;;;7.33;6.50;;;20.50;99.90;;;;;;485959;245;28765;-80
2023/07/10 05:21:29;;;;;;;8.33;7.53;;;20.50;99.90;;;;;;484761;245;28773;-79
2023/07/10 05:23:30;;;;;;;9.33;7.10;;;20.60;99.90;;;;;;486786;244;29333;-80
2023/07/10 05:25:32;;;;;;;7.70;7.00;;;20.60;99.90;;;;;;485947;245;29308;-80
2023/07/10 05:27:33;;;;;;;7.93;7.10;;;20.70;99.90;;;;;;485046;245;29192;-80
2023/07/10 05:29:34;;;;;;;12.03;7.80;;;20.70;99.90;;;;;;486811;244;29372;-80
2023/07/10 05:31:36;;;;;;;8.90;7.73;;;20.70;99.90;;;;;;485925;245;28781;-80
2023/07/10 05:33:37;;;;;;;9.13;7.20;;;20.80;99.90;;;;;;484984;245;28863;-80
2023/07/10 05:35:38;;;;;;;6.63;6.03;;;20.80;99.90;;;;;;486724;244;28897;-80
2023/07/10 05:37:39;;;;;;;10.10;8.10;;;20.80;99.90;;;;;;485914;245;28814;-80
2023/07/10 05:39:40;;;;;;;7.93;7.10;;;20.90;99.90;;;;;;485037;245;28765;-80
2023/07/10 05:41:42;;;;;;;8.23;7.30;;;20.90;99.90;;;;;;486826;244;28912;-80
2023/07/10 05:43:43;;;;;;;7.70;6.37;;;21.10;99.90;;;;;;485957;245;28755;-80
2023/07/10 05:45:44;;;;;;;10.83;7.53;;;21.00;99.90;;;;;;485064;245;28831;-80
2023/07/10 05:47:46;;;;;;;9.87;7.07;;;21.10;99.90;;;;;;486818;244;29314;-80
2023/07/10 05:49:47;;;;;;;8.07;7.27;;;21.10;99.90;;;;;;485956;245;29356;-80
2023/07/10 05:51:48;;;;;;;9.80;7.27;;;21.10;99.90;;;;;;487377;244;29166;-78
2023/07/10 05:53:49;;;;;;;9.13;7.37;;;21.20;99.90;;;;;;493761;240;28707;-79
2023/07/10 05:55:51;;;;;;;8.67;7.10;;;21.20;99.90;;;;;;486814;244;28885;-80
2023/07/10 05:57:52;;;;;;;9.73;7.70;;;21.30;99.90;;;;;;480802;247;28901;-80
2023/07/10 05:59:53;;;;;;;9.20;7.90;;;21.30;99.90;;;;;;481137;247;28780;-80
2023/07/10 06:01:54;;;;;;;12.30;8.20;;;21.40;99.90;;;;;;487358;244;29227;-80
2023/07/10 06:03:56;;;;;;;8.30;7.20;;;21.40;99.90;;;;;;493743;240;28723;-79
2023/07/10 06:05:57;;;;;;;8.70;7.80;;;21.40;99.90;;;;;;486782;244;28874;-79
2023/07/10 06:07:58;;;;;;;10.80;7.63;;;21.40;99.90;;;;;;485947;245;28768;-79
2023/07/10 06:09:59;;;;;;;11.80;8.17;;;21.60;99.90;;;;;;485011;245;29250;-79
2023/07/10 06:12:01;;;;;;;11.10;7.43;;;21.70;99.90;;;;;;486781;244;29502;-80
2023/07/10 06:14:02;;;;;;;13.90;7.70;;;21.70;99.90;;;;;;485949;245;29265;-80
2023/07/10 06:16:03;;;;;;;8.20;7.30;;;21.70;99.90;;;;;;485038;245;28746;-80
2023/07/10 06:18:04;;;;;;;10.47;7.93;;;21.80;99.90;;;;;;486766;244;28938;-80
2023/07/10 06:20:06;;;;;;;10.37;7.47;;;21.80;99.90;;;;;;485914;245;28796;-79
2023/07/10 06:22:07;;;;;;;9.43;7.90;;;21.90;99.90;;;;;;485055;245;28721;-80
2023/07/10 06:24:08;;;;;;;10.60;8.07;;;21.90;99.90;;;;;;486801;244;28879;-80
2023/07/10 06:26:09;;;;;;;8.27;6.73;;;22.00;99.90;;;;;;485950;245;28833;-80
2023/07/10 06:28:11;;;;;;;9.30;8.03;;;22.10;99.90;;;;;;485090;245;28807;-79
2023/07/10 06:30:12;;;;;;;9.27;7.00;;;22.10;99.90;;;;;;486783;244;29496;-80
2023/07/10 06:32:13;;;;;;;10.43;7.40;;;22.10;99.90;;;;;;485891;245;30008;-80
2023/07/10 06:34:14;;;;;;;8.97;6.80;;;22.20;99.90;;;;;;485049;245;29330;-80
2023/07/10 06:36:16;;;;;;;9.23;6.53;;;22.30;99.90;;;;;;486797;244;28925;-80
2023/07/10 06:38:17;;;;;;;7.80;7.00;;;22.30;99.90;;;;;;485946;245;28824;-80
2023/07/10 06:40:18;;;;;;;12.77;7.47;;;22.40;99.90;;;;;;485043;245;28747;-80
2023/07/10 06:42:19;;;;;;;9.40;6.93;;;22.30;99.90;;;;;;486781;244;28951;-80
2023/07/10 06:44:21;;;;;;;10.13;6.63;;;22.40;99.90;;;;;;485955;245;29164;-80
2023/07/10 06:46:22;;;;;;;9.03;6.73;;;22.40;99.90;;;;;;485024;245;28791;-80
2023/07/10 06:48:23;;;;;;;8.83;7.33;;;22.50;99.90;;;;;;486825;244;28997;-80
2023/07/10 06:50:24;;;;;;;11.93;7.60;;;22.40;99.90;;;;;;485959;245;28811;-80
2023/07/10 06:52:26;;;;;;;10.97;7.17;;;22.40;99.90;;;;;;485071;245;30339;-80
2023/07/10 06:54:27;;;;;;;8.50;6.90;;;22.50;99.90;;;;;;486784;244;29304;-80
2023/07/10 06:56:28;;;;;;;9.80;6.90;;;22.50;99.90;;;;;;485957;245;29302;-80
2023/07/10 06:58:30;;;;;;;7.83;7.13;;;22.60;99.90;;;;;;485031;245;28811;-80
2023/07/10 07:00:31;;;;;;;7.83;6.70;;;22.60;99.90;;;;;;486777;244;28962;-79
2023/07/10 07:02:32;;;;;;;8.60;7.20;;;22.60;99.90;;;;;;485933;245;28807;-80
2023/07/10 07:04:33;;;;;;;9.83;7.20;;;22.70;99.90;;;;;;485042;245;28819;-80
2023/07/10 07:06:35;;;;;;;10.57;7.10;;;22.80;99.90;;;;;;486799;244;28868;-80
2023/07/10 07:08:36;;;;;;;7.93;6.27;;;22.90;99.90;;;;;;485902;245;28746;-81
2023/07/10 07:10:37;;;;;;;9.20;6.53;;;22.90;99.90;;;;;;485055;245;28817;-81
2023/07/10 07:12:38;;;;;;;11.20;7.40;;;22.90;99.90;;;;;;486762;244;28976;-80
2023/07/10 07:14:39;;;;;;;8.67;6.70;;;22.90;99.90;;;;;;485942;245;29357;-80
2023/07/10 07:16:41;;;;;;;9.70;6.93;;;23.00;99.90;;;;;;485055;245;29508;-80
2023/07/10 07:18:42;;;;;;;7.90;7.03;;;23.00;99.90;;;;;;486793;244;29360;-80
2023/07/10 07:20:43;;;;;;;9.13;7.30;;;23.00;99.90;;;;;;485943;245;29270;-80
2023/07/10 07:22:44;;;;;;;12.37;7.57;;;22.90;99.90;;;;;;485050;245;28793;-81
2023/07/10 07:24:46;;;;;;;7.03;6.33;;;22.90;99.90;;;;;;486768;244;28878;-80
2023/07/10 07:26:47;;;;;;;8.10;6.93;;;22.90;99.90;;;;;;485961;243;28779;-80
2023/07/10 07:28:48;;;;;;;9.63;7.50;;;22.90;99.90;;;;;;485042;245;28819;-81
2023/07/10 07:30:49;;;;;;;8.20;7.30;;;22.90;99.90;;;;;;486772;244;28880;-80
2023/07/10 07:32:51;;;;;;;9.73;7.03;;;22.90;99.90;;;;;;485911;245;28747;-80
2023/07/10 07:34:52;;;;;;;9.43;7.10;;;23.00;99.90;;;;;;485047;245;28761;-80
2023/07/10 07:36:53;;;;;;;8.90;7.03;;;23.10;99.90;;;;;;486785;244;29019;-80
2023/07/10 07:38:54;;;;;;;8.77;6.90;;;23.10;99.90;;;;;;485945;245;29201;-81
2023/07/10 07:40:56;;;;;;;8.23;6.63;;;23.20;99.90;;;;;;485012;245;29318;-80
2023/07/10 07:42:57;;;;;;;8.23;7.40;;;23.20;99.90;;;;;;486780;244;29299;-80
2023/07/10 07:44:58;;;;;;;9.60;7.50;;;23.20;99.90;;;;;;485930;243;29290;-80
2023/07/10 07:46:59;;;;;;;8.83;7.50;;;23.20;99.90;;;;;;485069;245;28844;-81
2023/07/10 07:49:01;;;;;;;10.93;8.37;;;23.40;99.90;;;;;;486778;244;28939;-81
2023/07/10 07:51:02;;;;;;;9.43;7.57;;;23.40;99.90;;;;;;485944;245;28787;-80
2023/07/10 07:53:03;;;;;;;9.60;7.60;;;23.50;99.90;;;;;;484997;245;28800;-80
2023/07/10 07:55:04;;;;;;;10.73;7.20;;;23.70;99.90;;;;;;486776;244;28841;-80
2023/07/10 07:57:06;;;;;;;12.10;8.33;;;23.80;99.90;;;;;;485943;245;28857;-81
2023/07/10 07:59:07;;;;;;;9.10;6.77;;;23.90;99.90;;;;;;485012;245;28831;-81
2023/07/10 08:01:09;;;;;;;9.60;6.90;;;23.90;99.90;;;;;;486770;244;29502;-81
2023/07/10 08:03:10;;;;;;;13.13;8.20;;;24.00;99.90;;;;;;485897;245;29972;-81
2023/07/10 08:05:11;;;;;;;8.30;7.33;;;24.10;99.90;;;;;;485054;245;29198;-82
2023/07/10 08:07:12;;;;;;;10.33;7.50;;;24.20;99.90;;;;;;486800;244;29399;-81
2023/07/10 08:09:13;;;;;;;9.67;7.37;;;24.50;99.90;;;;;;485940;245;28987;-81
2023/07/10 08:11:14;;;;;;;10.43;7.10;;;24.60;99.90;;;;;;485051;245;28745;-80
2023/07/10 08:13:16;;;;;;;9.07;6.87;;;24.70;99.90;;;;;;486788;244;28858;-81
2023/07/10 08:15:17;;;;;;;7.97;6.67;;;24.70;99.90;;;;;;485937;245;28815;-82
2023/07/10 08:17:18;;;;;;;10.13;7.23;;;24.70;99.90;;;;;;485057;245;28851;-81
2023/07/10 08:19:19;;;;;;;11.10;6.50;;;24.80;99.90;;;;;;486780;244;28829;-81
2023/07/10 08:21:21;;;;;;;7.90;7.10;;;24.80;99.90;;;;;;485893;245;28815;-80
2023/07/10 08:23:22;;;;;;;9.90;7.20;;;24.80;99.90;;;;;;485035;245;30005;-80
2023/07/10 08:25:23;;;;;;;11.87;7.20;;;24.90;99.90;;;;;;486765;244;29364;-80
2023/07/10 08:27:24;;;;;;;9.00;7.33;;;24.90;99.90;;;;;;485936;245;29266;-82
2023/07/10 08:29:26;;;;;;;7.70;6.67;;;25.00;99.90;;;;;;485030;245;28691;-81
2023/07/10 08:31:29;;;;;;;9.90;7.30;;;25.10;99.90;;;;;;486763;244;28992;-81
2023/07/10 08:33:28;;;;;;;11.60;6.43;;;25.10;99.90;;;;;;485813;245;28770;-81
2023/07/10 08:35:30;;;;;;;7.63;6.80;;;25.20;99.90;;;;;;485008;245;28820;-80
2023/07/10 08:37:31;;;;;;;7.17;6.47;;;25.20;99.90;;;;;;486790;244;28895;-81
2023/07/10 08:39:32;;;;;;;8.93;7.23;;;25.20;99.90;;;;;;485930;245;28885;-81
2023/07/10 08:41:33;;;;;;;8.90;6.87;;;25.30;99.90;;;;;;484991;245;28787;-81
2023/07/10 08:43:35;;;;;;;9.63;6.20;;;25.50;99.90;;;;;;486747;244;28916;-81
2023/07/10 08:45:36;;;;;;;7.30;6.20;;;25.60;99.90;;;;;;485904;245;29276;-81
2023/07/10 08:47:37;;;;;;;8.27;6.03;;;25.50;99.90;;;;;;478218;240;29378;-81
2023/07/10 08:49:38;;;;;;;10.90;6.50;;;25.40;99.90;;;;;;488313;241;29278;-81
2023/07/10 08:51:40;;;;;;;8.77;6.60;;;25.50;99.90;;;;;;488301;243;28852;-81
2023/07/10 08:53:41;;;;;;;10.70;6.63;;;25.40;99.90;;;;;;488290;243;28801;-81
2023/07/10 08:55:42;;;;;;;10.67;7.03;;;25.50;99.90;;;;;;488287;243;28814;-80
2023/07/10 08:57:43;;;;;;;9.50;6.80;;;25.60;99.90;;;;;;488324;243;28772;-80
2023/07/10 08:59:45;;;;;;;7.17;6.30;;;25.40;99.90;;;;;;488302;243;28822;-81
2023/07/10 09:01:46;;;;;;;8.60;6.87;;;25.20;99.90;;;;;;488301;243;28839;-80
2023/07/10 09:03:47;;;;;;;13.43;8.33;;;25.10;99.90;;;;;;488296;243;28810;-82
2023/07/10 09:05:49;;;;;;;9.43;6.90;;;25.00;99.90;;;;;;488288;243;28752;-81
2023/07/10 09:07:50;;;;;;;7.13;6.43;;;24.90;99.90;;;;;;488325;243;29262;-80
2023/07/10 09:09:51;;;;;;;7.60;6.13;;;24.90;99.90;;;;;;488310;243;29191;-81
2023/07/10 09:11:52;;;;;;;13.53;6.87;;;24.90;99.90;;;;;;488307;243;29273;-81
2023/07/10 09:13:53;;;;;;;12.43;7.37;;;25.10;99.90;;;;;;488277;243;28705;-81
2023/07/10 09:15:55;;;;;;;7.87;6.73;;;25.30;99.90;;;;;;488303;241;28836;-81
2023/07/10 09:17:56;;;;;;;8.57;5.93;;;25.60;99.90;;;;;;488300;243;28750;-81
2023/07/10 09:19:58;;;;;;;9.77;6.13;;;25.80;99.90;;;;;;488344;243;28797;-80
2023/07/10 09:21:58;;;;;;;9.03;6.60;;;25.90;99.90;;;;;;488331;243;28817;-81
2023/07/10 09:24:00;;;;;;;8.00;5.80;;;26.00;99.90;;;;;;488310;243;28809;-81
2023/07/10 09:26:01;;;;;;;7.07;6.37;;;26.00;99.90;;;;;;488301;243;28836;-81
2023/07/10 09:28:02;;;;;;;7.80;6.50;;;26.00;99.90;;;;;;488336;243;28737;-81
2023/07/10 09:30:04;;;;;;;8.00;5.93;;;26.10;99.90;;;;;;488328;243;28726;-81
2023/07/10 09:32:05;;;;;;;8.13;5.77;;;26.00;99.90;;;;;;488218;243;29298;-81
2023/07/10 09:34:06;;;;;;;9.27;6.20;;;25.90;99.90;;;;;;486926;243;36480;-81
2023/07/10 09:36:07;;;;;;;11.47;5.90;;;25.90;99.90;;;;;;488317;243;28011;-81
2023/07/10 09:38:08;;;;;;;6.43;5.50;;;25.70;99.90;;;;;;488348;243;28820;-81
2023/07/10 09:40:10;;;;;;;6.77;5.93;;;25.70;99.90;;;;;;488324;243;28808;-82
2023/07/10 09:42:11;;;;;;;8.73;6.10;;;25.80;99.90;;;;;;488318;243;28733;-81
2023/07/10 09:44:12;;;;;;;6.43;5.47;;;25.80;99.90;;;;;;488313;243;28710;-81
2023/07/10 09:46:13;;;;;;;9.57;6.40;;;25.80;99.90;;;;;;488289;243;28887;-81
2023/07/10 09:48:15;;;;;;;6.00;5.23;;;26.00;99.90;;;;;;488331;243;28821;-80
2023/07/10 09:50:16;;;;;;;9.90;5.73;;;26.10;99.90;;;;;;488311;243;28708;-81
2023/07/10 09:52:17;;;;;;;6.23;5.20;;;26.10;99.90;;;;;;488336;243;28864;-81
2023/07/10 09:54:18;;;;;;;5.50;4.87;;;26.10;99.90;;;;;;488304;243;29243;-81
2023/07/10 09:56:20;;;;;;;6.30;5.20;;;26.20;99.90;;;;;;488293;243;29322;-82
2023/07/10 09:58:21;;;;;;;6.33;4.97;;;26.40;99.90;;;;;;488256;241;29931;-82
2023/07/10 10:00:22;;;;;;;6.73;4.93;;;26.50;99.90;;;;;;488320;243;29191;-81
2023/07/10 10:02:23;;;;;;;12.50;5.17;;;26.50;99.90;;;;;;488311;243;28768;-81
2023/07/10 10:04:25;;;;;;;7.40;4.77;;;26.50;99.90;;;;;;488300;243;28758;-81
2023/07/10 10:06:26;;;;;;;6.00;4.73;;;26.40;99.90;;;;;;488275;243;28752;-81
2023/07/10 10:08:27;;;;;;;6.60;5.37;;;26.40;99.90;;;;;;488307;243;28922;-81
2023/07/10 10:10:28;;;;;;;7.17;5.43;;;26.40;99.90;;;;;;488331;243;28743;-82
2023/07/10 10:12:30;;;;;;;6.40;4.93;;;26.30;99.90;;;;;;488300;243;28764;-81
2023/07/10 10:14:31;;;;;;;9.17;5.20;;;26.20;99.90;;;;;;488307;243;28725;-82
2023/07/10 10:16:32;;;;;;;8.00;4.73;;;25.90;99.90;;;;;;488304;243;28834;-81
2023/07/10 10:18:33;;;;;;;8.33;4.60;;;26.00;99.90;;;;;;488327;243;29321;-81
2023/07/10 10:20:35;;;;;;;5.20;4.70;;;26.00;99.90;;;;;;488335;243;29246;-81
2023/07/10 10:22:36;;;;;;;5.03;4.53;;;26.10;99.90;;;;;;488303;243;29214;-81
2023/07/10 10:24:37;;;;;;;5.97;4.43;;;26.10;99.90;;;;;;488299;243;28694;-82
2023/07/10 10:26:38;;;;;;;4.70;4.00;;;26.20;99.90;;;;;;488292;243;28796;-82
2023/07/10 10:28:40;;;;;;;5.77;4.67;;;26.30;99.90;;;;;;488312;243;28851;-82